Norway, IA (52318)

9:13 PM CST on March 02, 2015 (GMT -0600)
Ridgeview Estates | Change Station
CLOSE
Current Station
Personal Weather Station
Location: Atkins, IA
Elevation: 860 ft
Nearby Weather Stations
Active Advisory: Winter Weather Advisory

Elev 860 ft 41.99 °N, 91.85 °W | Updated 32 seconds ago

Overcast
Overcast
25.0 °F
Feels Like 19 °F
N
4.7
Wind Variable Wind from SSW
Gusts 5.6 mph

Today
High -- | Low -- °F
--% Chance of Precip.
Yesterday
High -- | Low -- °F
Precip. -- in
6:41 AM 5:58 PM
Waxing Gibbous, 94% visible
Pressure 30.27 in
Visibility 9.0 miles
Clouds Overcast 7000 ft
Windchill 19 °F
Dew Point 14 °F
Humidity 63%
Rainfall 0.00 in
Snow Depth Not available.
UV 0 out of 12
Pollen .50 out of 12
Air Quality Not available.
Flu Activity Not available.
METAR KCID 030252Z 13006KT 9SM OVC070 M04/M08 A3022 RMK AO2 SLP249 T10441078 56028

More Conditions Fewer Conditions

Pressure 30.27 in
Visibility 9.0 miles
Clouds Overcast 7000 ft
Windchill 19 °F
Dew Point 14 °F
Humidity 63%
Rainfall 0.00 in
Snow Depth Not available.
UV 0 out of 12
Pollen .50 out of 12
Air Quality Not available.
Flu Activity Not available.
METAR KCID 030252Z 13006KT 9SM OVC070 M04/M08 A3022 RMK AO2 SLP249 T10441078 56028

More Conditions Fewer Conditions

10-Day Weather Forecast

Almanac

Astronomy

Mar. 02, 2015 Rise Set
Actual Time
Civil Twilight
Nautical Twilight
Astronomical Twilight
Moon
Length of Visible Light
Length of Day
Tomorrow will be .
, % of the Moon is Illuminated

Today's Extremes

State Highs State Lows

Community

WunderPhotos

Upload Photos

1,802,057 photos uploaded!

WunderBlogs® & News

Nearby

Air Quality

  Air Quality AQ Index Pollutant
Not available.

Snow Depth

Station Depth Elevation

Earthquake Activity

City Distance Mag. Time & Date
Minimum magnitude displayed is 2.5.

Coastal Water Temperatures

Place Temperature

Nearby Weather Stations

Winter Weather Advisory
Statement as of 3:12 PM CST on March 02, 2015

... Winter Weather Advisory in effect from 3 am to noon CST
Tuesday...

The National Weather Service in Quad Cities has issued a Winter
Weather Advisory for mixed precipitation... which is in effect
from 3 am to noon CST Tuesday.

* Timing... late tonight through Tuesday morning.

* Snow accumulations... around an inch.

* Temperatures... in the upper 20s.

* Impacts... the mixed precipitation may result in slick roads for
the morning commute.

Precautionary/preparedness actions...

A Winter Weather Advisory means that periods of snow and sleet
will cause travel difficulties. Be prepared for slippery roads and
limited visibilities... and be careful while driving.